KGRR/GRR METAR and TAF weather

Enter ICAO airport designator
Station Type Date Time Source
KGRR METAR 2021/07/30 23:53 UTC NOAA

KGRR 302353Z 25006KT 10SM FEW180 BKN230 22/12 A3009 RMK AO2 SLP187 T02220122 10244 20222 58000


Station Type Date Time Source
KGRR Decoded METAR 2021/07/30 23:53 UTC NOAA

GERALD R. FORD INTERNATIONAL, MI, United States (KGRR) 42-53N 085-31W 239M
Jul 30, 2021 - 07:53 PM EDT / 2021.07.30 2353 UTC
Wind: from the WSW (250 degrees) at 7 MPH (6 KT):0
Visibility: 10 mile(s):0
Sky conditions: mostly cloudy
Temperature: 72.0 F (22.2 C)
Dew Point: 54.0 F (12.2 C)
Relative Humidity: 53%
Pressure (altimeter): 30.09 in. Hg (1018 hPa)
Pressure tendency: 0.00 inches (0.0 hPa) lower than three hours ago
ob: KGRR 302353Z 25006KT 10SM FEW180 BKN230 22/12 A3009 RMK AO2 SLP187 T02220122 10244 20222 58000
cycle: 0

Station Type Date Time Source
KGRR TAF 2021/07/30 18:48 UTC NOAA

TAF KGRR 301747Z 3018/3118 36003KT P6SM BKN035 BKN250
FM310200 30004KT P6SM SCT250

Example: see airport list